Home   Weather   Germany   Hildesheim   Past weeks
Flag for Germany

Past Weather in Hildesheim, Lower Saxony, Germany — Yesterday and Last 2 Weeks

Currently: 34 °F. Passing clouds. (Weather station: Braunschweig Wolfsburg, Germany). See more current weather

Past Weather in Hildesheim — Graph

°F

Hildesheim Temperature Yesterday

Maximum temperature yesterday: 43 °F (at 1:50 pm)
Minimum temperature yesterday: 30 °F (at 5:20 am)
Average temperature yesterday: 36 °F

High & Low Weather Summary for the Past Weeks

 TemperatureHumidityPressure
High66 °F (Feb 22, 2:20 pm)100% (Feb 26, 5:20 am)30.69 "Hg (Feb 26, 5:20 am)
Low28 °F (Mar 5, 6:50 am)30% (Feb 22, 3:20 pm)30.04 "Hg (Mar 4, 3:50 pm)
Average43 °F78%30.37 "Hg
* Reported Feb 22 2:20 am — Mar 9 2:20 am, Hildesheim. Weather by CustomWeather, © 2021

Note: Actual official high and low records may vary slightly from our data, if they occured in-between our weather recording intervals... More about our weather records

Hildesheim Weather History for the Previous 24 Hours

Scroll right to see more
 ConditionsComfort  
Time TempWeatherWind HumidityBarometerVisibility
2:20 am
Tue, Mar 9
34 °FPassing clouds.3 mph56%30.12 "HgN/A
1:50 am34 °FOvercast.5 mph51%30.12 "HgN/A
1:20 am34 °FOvercast.5 mph56%30.15 "HgN/A
12:50 am32 °FOvercast.3 mph60%30.15 "HgN/A
12:20 am30 °FOvercast.3 mph69%30.15 "HgN/A
11:50 pm
Mon, Mar 8
32 °FOvercast.3 mph64%30.15 "HgN/A
11:20 pm30 °FPassing clouds.3 mph69%30.15 "HgN/A
10:50 pm30 °FPassing clouds.3 mph69%30.15 "HgN/A
10:20 pm30 °FPassing clouds.5 mph69%30.15 "HgN/A
9:50 pm32 °FPassing clouds.3 mph60%30.18 "HgN/A
9:20 pm32 °FPassing clouds.3 mph60%30.18 "HgN/A
8:50 pm32 °FPassing clouds.2 mph60%30.18 "HgN/A
8:20 pm32 °FPartly cloudy.2 mph55%30.18 "HgN/A
7:50 pm36 °FClear.2 mph48%30.18 "Hg10 mi
7:20 pm36 °FClear.No wind48%30.18 "Hg10 mi
6:50 pm36 °FClear.No wind52%30.18 "Hg10 mi
6:20 pm39 °FClear.3 mph42%30.18 "Hg10 mi
5:50 pm39 °FPassing clouds.3 mph42%30.18 "HgN/A
5:20 pm43 °FSunny.5 mph39%30.18 "Hg10 mi
4:50 pm43 °FPassing clouds.6 mph36%30.18 "HgN/A
4:20 pm43 °FPassing clouds.5 mph39%30.18 "HgN/A
3:50 pm43 °FPassing clouds.6 mph36%30.18 "HgN/A
3:20 pm43 °FPassing clouds.6 mph39%30.18 "HgN/A
2:50 pm43 °FPassing clouds.8 mph36%30.18 "HgN/A
2:20 pm41 °FPassing clouds.7 mph36%30.18 "HgN/A
1:50 pm43 °FPassing clouds.6 mph34%30.21 "HgN/A
1:20 pm41 °FPassing clouds.8 mph33%30.21 "HgN/A
12:50 pm41 °FSunny.7 mph33%30.21 "Hg10 mi
12:20 pm41 °FPassing clouds.6 mph45%30.21 "HgN/A
11:50 am39 °FPassing clouds.8 mph52%30.21 "HgN/A
11:20 am39 °FPassing clouds.6 mph61%30.21 "HgN/A
10:50 am39 °FPassing clouds.5 mph65%30.21 "HgN/A
10:20 am37 °FSunny.2 mph65%30.21 "Hg10 mi
9:50 am36 °FSunny.2 mph81%30.21 "Hg10 mi
9:20 am34 °FSunny.2 mph93%30.21 "Hg10 mi
8:50 am34 °FSunny.2 mph93%30.21 "Hg10 mi
8:20 am32 °FSunny.2 mph100%30.18 "Hg10 mi
7:50 am30 °FSunny.2 mph100%30.18 "Hg10 mi
7:20 am30 °FSunny.2 mph100%30.18 "Hg10 mi
6:50 am30 °FSunny.No wind100%30.15 "Hg10 mi
6:20 am30 °FPassing clouds.3 mph100%30.15 "HgN/A
5:50 am30 °FPassing clouds.3 mph100%30.15 "HgN/A
5:20 am30 °FClear.2 mph100%30.15 "HgN/A
4:50 am32 °FClear.3 mph100%30.12 "HgN/A
4:20 am32 °FPassing clouds.6 mph100%30.12 "HgN/A
3:50 am34 °FPassing clouds.5 mph100%30.12 "HgN/A
3:20 am34 °FMostly cloudy.3 mph100%30.12 "HgN/A
Weather by CustomWeather, © 2021

See weather overview